National Weather Service Raw Text Product

Displaying AFOS PIL: TAFDSM Received: 2017-12-07 20:58 UTC


914 
FTUS43 KDMX 072058 AAA
TAFDSM
TAF AMD
KDSM 072058Z 0721/0818 28010KT P6SM FEW250
     FM080000 26006KT P6SM FEW250
     FM081000 23006KT P6SM BKN080=